createdAt,value
2022-12-25T00:02:15.938Z,7.72
2022-12-25T00:04:42.491Z,7.70
2022-12-25T00:07:08.949Z,7.70
2022-12-25T00:09:35.455Z,7.69
2022-12-25T00:12:01.948Z,7.68
2022-12-25T00:14:28.401Z,7.68
2022-12-25T00:16:54.994Z,7.66
2022-12-25T00:19:21.476Z,7.64
2022-12-25T00:21:47.956Z,7.62
2022-12-25T00:24:14.399Z,7.61
2022-12-25T00:26:40.986Z,7.63
2022-12-25T00:29:07.460Z,7.62
2022-12-25T00:31:35.163Z,7.59
2022-12-25T00:34:01.651Z,7.53
2022-12-25T00:36:28.165Z,7.47
2022-12-25T00:38:54.738Z,7.40
2022-12-25T00:41:42.406Z,7.35
2022-12-25T00:44:11.306Z,7.30
2022-12-25T00:46:37.878Z,7.28
2022-12-25T00:49:04.453Z,7.25
2022-12-25T00:51:31.027Z,7.28
2022-12-25T00:53:57.688Z,7.27
2022-12-25T00:56:24.192Z,7.30
2022-12-25T00:58:50.799Z,7.34
2022-12-25T01:01:18.068Z,7.36
2022-12-25T01:03:44.807Z,7.38
2022-12-25T01:06:12.811Z,7.38
2022-12-25T01:09:03.897Z,7.38
2022-12-25T01:11:30.948Z,7.39
2022-12-25T01:13:57.573Z,7.41
2022-12-25T01:16:24.184Z,7.44
2022-12-25T01:18:50.768Z,7.47
2022-12-25T01:21:21.044Z,7.45
2022-12-25T01:23:49.011Z,7.42
2022-12-25T01:26:16.485Z,7.42
2022-12-25T01:28:43.030Z,7.43
2022-12-25T01:31:12.695Z,7.38
2022-12-25T01:33:40.954Z,7.43
2022-12-25T01:36:15.726Z,7.43
2022-12-25T01:38:43.327Z,7.44
2022-12-25T01:41:11.777Z,7.43
2022-12-25T01:44:05.927Z,7.46
2022-12-25T01:46:33.113Z,7.46
2022-12-25T01:49:03.984Z,7.51
2022-12-25T01:51:43.300Z,7.52
2022-12-25T01:54:15.194Z,7.50
2022-12-25T01:56:43.773Z,7.51
2022-12-25T01:59:12.271Z,7.48
2022-12-25T02:01:38.910Z,7.49
2022-12-25T02:04:13.256Z,7.50
2022-12-25T02:06:39.734Z,7.50
2022-12-25T02:09:06.410Z,7.51
2022-12-25T02:11:51.454Z,7.50
2022-12-25T02:14:18.215Z,7.47
2022-12-25T02:16:57.015Z,7.51
2022-12-25T02:20:13.030Z,7.50
2022-12-25T02:23:04.030Z,7.49
2022-12-25T02:25:48.820Z,7.53
2022-12-25T02:28:45.841Z,7.55
2022-12-25T02:31:17.756Z,7.53
2022-12-25T02:34:03.796Z,7.55
2022-12-25T02:36:51.776Z,7.58
2022-12-25T02:39:44.089Z,7.60
2022-12-25T02:42:17.878Z,7.60
2022-12-25T02:45:07.929Z,7.60
2022-12-25T02:47:55.008Z,7.60
2022-12-25T02:50:41.599Z,7.62
2022-12-25T02:53:28.108Z,7.65
2022-12-25T02:56:15.276Z,7.66
2022-12-25T02:59:01.422Z,7.66
2022-12-25T03:01:51.677Z,7.67
2022-12-25T03:04:40.459Z,7.65
2022-12-25T03:07:15.832Z,7.65
2022-12-25T03:10:07.987Z,7.65
2022-12-25T03:13:04.278Z,7.65
2022-12-25T03:15:51.268Z,7.61
2022-12-25T03:18:24.248Z,7.58
2022-12-25T03:21:11.728Z,7.57
2022-12-25T03:24:00.483Z,7.58
2022-12-25T03:26:46.019Z,7.57
2022-12-25T03:29:32.948Z,7.58
2022-12-25T03:32:10.215Z,7.57
2022-12-25T03:35:01.030Z,7.57
2022-12-25T03:37:43.606Z,7.57
2022-12-25T03:40:49.226Z,7.57
2022-12-25T03:43:40.578Z,7.57
2022-12-25T03:46:31.837Z,7.58
2022-12-25T03:49:25.799Z,7.61
2022-12-25T03:52:12.995Z,7.63
2022-12-25T03:55:00.109Z,7.63
2022-12-25T03:57:45.357Z,7.62
2022-12-25T04:00:31.112Z,7.66
2022-12-25T04:03:16.234Z,7.65
2022-12-25T04:06:01.423Z,7.65
2022-12-25T04:08:46.401Z,7.64
2022-12-25T04:11:31.533Z,7.64
2022-12-25T04:14:16.718Z,7.64
2022-12-25T04:17:01.821Z,7.64
2022-12-25T04:19:46.913Z,7.63
2022-12-25T04:22:31.885Z,7.57
2022-12-25T04:25:17.047Z,7.54
2022-12-25T04:28:02.275Z,7.52
2022-12-25T04:30:47.450Z,7.47
2022-12-25T04:33:32.609Z,7.41
2022-12-25T04:36:14.291Z,7.39
2022-12-25T04:38:41.282Z,7.39
2022-12-25T04:41:10.605Z,7.34
2022-12-25T04:43:37.780Z,7.30
2022-12-25T04:46:05.377Z,7.28
2022-12-25T04:48:34.740Z,7.27
2022-12-25T04:51:16.227Z,7.26
2022-12-25T04:53:43.251Z,7.22
2022-12-25T04:56:10.124Z,7.19
2022-12-25T04:58:37.087Z,7.19
2022-12-25T05:01:04.601Z,7.20
2022-12-25T05:03:32.005Z,7.16
2022-12-25T05:05:58.844Z,7.20
2022-12-25T05:08:25.311Z,7.18
2022-12-25T05:10:51.856Z,7.17
2022-12-25T05:13:18.335Z,7.18
2022-12-25T05:15:45.073Z,7.15
2022-12-25T05:18:11.629Z,7.12
2022-12-25T05:20:40.203Z,7.16
2022-12-25T05:23:07.276Z,7.15
2022-12-25T05:25:33.772Z,7.14
2022-12-25T05:28:00.235Z,7.14
2022-12-25T05:30:26.849Z,7.15
2022-12-25T05:32:53.335Z,7.12
2022-12-25T05:35:21.041Z,7.13
2022-12-25T05:37:47.641Z,7.14
2022-12-25T05:40:14.187Z,7.17
2022-12-25T05:42:40.671Z,7.23
2022-12-25T05:45:07.659Z,7.24
2022-12-25T05:47:34.176Z,7.22
2022-12-25T05:50:00.636Z,7.27
2022-12-25T05:52:31.459Z,7.25
2022-12-25T05:54:57.916Z,7.28
2022-12-25T05:57:24.520Z,7.29
2022-12-25T05:59:50.975Z,7.29
2022-12-25T06:02:17.547Z,7.30
2022-12-25T06:04:44.047Z,7.31
2022-12-25T06:07:10.594Z,7.27
2022-12-25T06:09:37.148Z,7.30
2022-12-25T06:12:04.318Z,7.36
2022-12-25T06:14:30.801Z,7.37
2022-12-25T06:16:57.381Z,7.33
2022-12-25T06:19:24.104Z,7.36
2022-12-25T06:21:54.492Z,7.33
2022-12-25T06:24:22.196Z,7.30
2022-12-25T06:26:49.405Z,7.39
2022-12-25T06:29:15.949Z,7.40
2022-12-25T06:31:42.531Z,7.38
2022-12-25T06:34:09.127Z,7.38
2022-12-25T06:36:38.107Z,7.35
2022-12-25T06:39:04.672Z,7.36
2022-12-25T06:41:31.180Z,7.37
2022-12-25T06:43:59.655Z,7.38
2022-12-25T06:46:28.897Z,7.41
2022-12-25T06:48:56.741Z,7.42
2022-12-25T06:51:25.413Z,7.42
2022-12-25T06:53:52.672Z,7.46
2022-12-25T06:56:21.889Z,7.49
2022-12-25T06:58:50.760Z,7.49
2022-12-25T07:01:21.397Z,7.48
2022-12-25T07:03:51.326Z,7.50
2022-12-25T07:06:17.823Z,7.46
2022-12-25T07:08:44.352Z,7.48
2022-12-25T07:11:10.976Z,7.53
2022-12-25T07:13:37.474Z,7.51
2022-12-25T07:16:05.497Z,7.53
2022-12-25T07:18:32.714Z,7.53
2022-12-25T07:21:00.390Z,7.60
2022-12-25T07:23:27.210Z,7.67
2022-12-25T07:25:58.736Z,7.69
2022-12-25T07:28:26.259Z,7.71
2022-12-25T07:30:53.191Z,7.70
2022-12-25T07:33:20.094Z,7.71
2022-12-25T07:35:46.710Z,7.72
2022-12-25T07:38:13.237Z,7.69
2022-12-25T07:40:39.801Z,7.69
2022-12-25T07:43:06.281Z,7.69
2022-12-25T07:45:32.819Z,7.68
2022-12-25T07:48:04.921Z,7.68
2022-12-25T07:50:32.233Z,7.69
2022-12-25T07:53:02.467Z,7.67
2022-12-25T07:55:28.973Z,7.67
2022-12-25T07:57:55.505Z,7.67
2022-12-25T08:00:22.286Z,7.69
2022-12-25T08:02:51.919Z,7.71
2022-12-25T08:05:18.636Z,7.71
2022-12-25T08:07:45.103Z,7.77
2022-12-25T08:10:11.719Z,7.79
2022-12-25T08:12:38.206Z,7.85
2022-12-25T08:15:05.151Z,7.91
2022-12-25T08:17:31.666Z,7.95
2022-12-25T08:19:58.152Z,7.95
2022-12-25T08:22:24.637Z,7.95
2022-12-25T08:24:51.117Z,7.98
2022-12-25T08:27:17.592Z,8.01
2022-12-25T08:29:44.992Z,8.05
2022-12-25T08:32:11.579Z,8.14
2022-12-25T08:34:38.712Z,8.32
2022-12-25T08:37:05.354Z,8.37
2022-12-25T08:39:31.995Z,8.75
2022-12-25T08:41:58.436Z,9.01
2022-12-25T08:44:24.892Z,10.04
2022-12-25T08:46:51.429Z,10.57
2022-12-25T08:49:18.009Z,11.28
2022-12-25T08:51:45.699Z,11.70
2022-12-25T08:54:15.492Z,11.74
2022-12-25T08:56:41.964Z,12.11
2022-12-25T08:59:08.468Z,12.09
2022-12-25T09:01:35.160Z,12.32
2022-12-25T09:04:01.729Z,12.80
2022-12-25T09:06:28.300Z,13.23
2022-12-25T09:08:54.776Z,13.18
2022-12-25T09:11:21.535Z,12.90
2022-12-25T09:13:49.203Z,12.41
2022-12-25T09:16:21.955Z,12.54
2022-12-25T09:18:49.246Z,12.16
2022-12-25T09:21:16.790Z,11.48
2022-12-25T09:23:43.564Z,11.28
2022-12-25T09:26:13.227Z,11.49
2022-12-25T09:28:43.726Z,11.66
2022-12-25T09:31:13.338Z,11.79
2022-12-25T09:33:39.913Z,11.86
2022-12-25T09:36:08.564Z,11.42
2022-12-25T09:38:36.031Z,11.25
2022-12-25T09:41:04.144Z,10.77
2022-12-25T09:43:37.708Z,10.73
2022-12-25T09:46:06.076Z,10.48
2022-12-25T09:48:34.834Z,10.51
2022-12-25T09:51:14.767Z,10.29
2022-12-25T09:53:51.827Z,10.43
2022-12-25T09:56:27.725Z,10.26
2022-12-25T09:58:54.956Z,10.36
2022-12-25T10:01:33.880Z,10.33
2022-12-25T10:04:12.436Z,10.16
2022-12-25T10:07:16.645Z,10.21
2022-12-25T10:09:56.757Z,10.38
2022-12-25T10:12:31.921Z,10.41
2022-12-25T10:15:19.056Z,10.13
2022-12-25T10:17:57.663Z,9.85
2022-12-25T10:20:41.089Z,10.11
2022-12-25T10:23:17.763Z,10.39
2022-12-25T10:25:45.226Z,10.86
2022-12-25T10:28:23.585Z,10.79
2022-12-25T10:30:52.481Z,11.25
2022-12-25T10:33:19.141Z,11.22
2022-12-25T10:35:46.032Z,11.17
2022-12-25T10:38:19.138Z,11.40
2022-12-25T10:41:01.120Z,11.62
2022-12-25T10:43:42.265Z,11.74
2022-12-25T10:46:14.452Z,12.04
2022-12-25T10:49:01.009Z,11.71
2022-12-25T10:51:36.325Z,12.06
2022-12-25T10:54:19.310Z,11.66
2022-12-25T10:57:03.817Z,11.64
2022-12-25T10:59:35.827Z,11.97
2022-12-25T11:02:15.643Z,12.00
2022-12-25T11:04:42.561Z,12.20
2022-12-25T11:07:23.145Z,12.28
2022-12-25T11:09:57.817Z,11.87
2022-12-25T11:12:42.054Z,12.20
2022-12-25T11:15:38.179Z,12.00
2022-12-25T11:18:21.231Z,11.61
2022-12-25T11:20:56.656Z,11.84
2022-12-25T11:23:25.329Z,11.63
2022-12-25T11:26:10.146Z,11.73
2022-12-25T11:28:38.598Z,11.44
2022-12-25T11:31:10.809Z,11.26
2022-12-25T11:33:44.943Z,11.43
2022-12-25T11:36:40.755Z,11.47
2022-12-25T11:39:35.425Z,11.51
2022-12-25T11:42:11.580Z,11.29
2022-12-25T11:44:50.214Z,11.45
2022-12-25T11:47:26.072Z,11.47
2022-12-25T11:50:00.959Z,11.38
2022-12-25T11:52:32.234Z,11.69
2022-12-25T11:55:19.272Z,11.56
2022-12-25T11:57:51.265Z,11.47
2022-12-25T12:00:18.811Z,11.69
2022-12-25T12:02:59.622Z,11.76
2022-12-25T12:05:33.705Z,11.61
2022-12-25T12:08:02.961Z,11.94
2022-12-25T12:10:51.258Z,11.63
2022-12-25T12:13:51.695Z,11.32
2022-12-25T12:16:18.705Z,11.34
2022-12-25T12:18:50.415Z,11.01
2022-12-25T12:21:27.367Z,10.76
2022-12-25T12:24:07.241Z,10.64
2022-12-25T12:26:40.977Z,10.57
2022-12-25T12:29:22.065Z,10.27
2022-12-25T12:31:50.985Z,10.13
2022-12-25T12:34:30.440Z,10.01
2022-12-25T12:37:03.971Z,9.88
2022-12-25T12:39:36.769Z,9.90
2022-12-25T12:42:15.858Z,9.84
2022-12-25T12:44:43.000Z,9.85
2022-12-25T12:47:27.716Z,9.79
2022-12-25T12:49:59.317Z,9.79
2022-12-25T12:52:35.639Z,9.77
2022-12-25T12:55:06.565Z,9.76
2022-12-25T12:57:39.592Z,9.78
2022-12-25T13:00:18.162Z,9.72
2022-12-25T13:03:01.273Z,9.71
2022-12-25T13:05:55.672Z,9.85
2022-12-25T13:08:59.223Z,10.11
2022-12-25T13:11:31.344Z,10.24
2022-12-25T13:14:01.997Z,10.33
2022-12-25T13:16:40.857Z,10.15
2022-12-25T13:19:28.911Z,10.20
2022-12-25T13:21:58.944Z,10.08
2022-12-25T13:24:28.089Z,9.92
2022-12-25T13:26:54.968Z,9.79
2022-12-25T13:29:30.720Z,9.74
2022-12-25T13:31:58.066Z,9.57
2022-12-25T13:34:39.615Z,9.50
2022-12-25T13:37:09.585Z,9.45
2022-12-25T13:39:39.414Z,9.39
2022-12-25T13:42:09.505Z,9.39
2022-12-25T13:44:46.814Z,9.39
2022-12-25T13:47:38.267Z,9.39
2022-12-25T13:50:21.614Z,9.40
2022-12-25T13:52:48.196Z,9.45
2022-12-25T13:55:22.309Z,9.45
2022-12-25T13:57:55.880Z,9.50
2022-12-25T14:00:33.483Z,9.50
2022-12-25T14:03:00.551Z,9.51
2022-12-25T14:05:37.873Z,9.53
2022-12-25T14:08:24.268Z,9.55
2022-12-25T14:10:53.695Z,9.53
2022-12-25T14:13:30.549Z,9.51
2022-12-25T14:15:57.955Z,9.52
2022-12-25T14:18:25.239Z,9.46
2022-12-25T14:21:08.119Z,9.44
2022-12-25T14:23:44.127Z,9.37
2022-12-25T14:26:22.335Z,9.32
2022-12-25T14:28:51.783Z,9.31
2022-12-25T14:31:19.834Z,9.32
2022-12-25T14:33:47.154Z,9.35
2022-12-25T14:36:15.013Z,9.35
2022-12-25T14:38:43.974Z,9.37
2022-12-25T14:41:33.563Z,9.29
2022-12-25T14:44:03.088Z,9.28
2022-12-25T14:46:31.899Z,9.29
2022-12-25T14:49:02.839Z,9.31
2022-12-25T14:51:31.179Z,9.49
2022-12-25T14:54:04.138Z,9.59
2022-12-25T14:56:39.221Z,9.61
2022-12-25T14:59:11.576Z,9.57
2022-12-25T15:01:41.328Z,9.53
2022-12-25T15:04:14.575Z,9.51
2022-12-25T15:06:59.868Z,9.48
2022-12-25T15:09:33.585Z,9.48
2022-12-25T15:12:00.139Z,9.37
2022-12-25T15:14:26.915Z,9.28
2022-12-25T15:16:57.303Z,9.25
2022-12-25T15:19:31.756Z,9.20
2022-12-25T15:22:01.957Z,9.15
2022-12-25T15:24:28.445Z,9.14
2022-12-25T15:30:14.203Z,9.02
2022-12-25T15:32:33.020Z,9.00
2022-12-25T15:34:59.561Z,8.96
2022-12-25T15:37:26.077Z,8.95
2022-12-25T15:39:52.712Z,8.88
2022-12-25T15:42:22.916Z,8.86
2022-12-25T15:44:50.123Z,8.83
2022-12-25T15:47:20.048Z,8.84
2022-12-25T15:49:46.745Z,8.81
2022-12-25T15:52:16.740Z,8.78
2022-12-25T15:54:43.408Z,8.72
2022-12-25T15:57:22.308Z,8.64
2022-12-25T15:59:48.913Z,8.63
2022-12-25T16:02:18.863Z,8.60
2022-12-25T16:04:45.674Z,8.56
2022-12-25T16:07:21.716Z,8.53
2022-12-25T16:09:48.178Z,8.52
2022-12-25T16:12:14.777Z,8.53
2022-12-25T16:14:41.358Z,8.51
2022-12-25T16:17:07.910Z,8.50
2022-12-25T16:19:34.395Z,8.45
2022-12-25T16:22:00.917Z,8.39
2022-12-25T16:24:27.440Z,8.26
2022-12-25T16:26:53.961Z,8.17
2022-12-25T16:29:20.428Z,8.10
2022-12-25T16:31:46.963Z,8.03
2022-12-25T16:34:13.458Z,7.97
2022-12-25T16:36:40.197Z,7.93
2022-12-25T16:39:06.760Z,7.90
2022-12-25T16:41:33.312Z,7.87
2022-12-25T16:44:06.713Z,7.86
2022-12-25T16:46:33.197Z,7.81
2022-12-25T16:48:59.889Z,7.80
2022-12-25T16:51:26.359Z,7.74
2022-12-25T16:53:53.465Z,7.75
2022-12-25T16:56:20.748Z,7.72
2022-12-25T16:58:47.966Z,7.68
2022-12-25T17:01:17.435Z,7.67
2022-12-25T17:03:44.585Z,7.65
2022-12-25T17:06:20.753Z,7.59
2022-12-25T17:08:47.601Z,7.54
2022-12-25T17:11:15.442Z,7.54
2022-12-25T17:13:46.468Z,7.51
2022-12-25T17:16:34.483Z,7.44
2022-12-25T17:19:04.353Z,7.40
2022-12-25T17:21:35.041Z,7.38
2022-12-25T17:24:03.967Z,7.35
2022-12-25T17:26:31.862Z,7.29
2022-12-25T17:28:58.818Z,7.20
2022-12-25T17:31:25.387Z,7.15
2022-12-25T17:33:52.029Z,7.20
2022-12-25T17:36:21.676Z,7.18
2022-12-25T17:38:48.761Z,7.15
2022-12-25T17:41:17.209Z,7.11
2022-12-25T17:43:45.744Z,7.06
2022-12-25T17:46:17.864Z,7.01
2022-12-25T17:48:45.277Z,6.97
2022-12-25T17:51:16.109Z,6.88
2022-12-25T17:53:45.276Z,6.81
2022-12-25T17:56:12.892Z,6.72
2022-12-25T17:58:39.462Z,6.64
2022-12-25T18:01:16.403Z,6.61
2022-12-25T18:03:44.934Z,6.59
2022-12-25T18:06:15.508Z,6.56
2022-12-25T18:08:43.675Z,6.51
2022-12-25T18:11:15.389Z,6.43
2022-12-25T18:13:45.059Z,6.38
2022-12-25T18:16:13.166Z,6.30
2022-12-25T18:18:40.683Z,6.25
2022-12-25T18:21:08.299Z,6.22
2022-12-25T18:23:36.083Z,6.17
2022-12-25T18:26:05.176Z,6.15
2022-12-25T18:28:31.991Z,6.11
2022-12-25T18:30:58.973Z,6.09
2022-12-25T18:33:26.293Z,6.08
2022-12-25T18:35:58.097Z,6.07
2022-12-25T18:38:24.876Z,6.11
2022-12-25T18:40:51.717Z,6.11
2022-12-25T18:43:18.262Z,6.08
2022-12-25T18:45:44.796Z,6.03
2022-12-25T18:48:11.424Z,5.98
2022-12-25T18:50:40.320Z,5.95
2022-12-25T18:53:10.125Z,5.92
2022-12-25T18:55:36.635Z,5.98
2022-12-25T18:58:03.240Z,6.06
2022-12-25T19:00:29.895Z,6.12
2022-12-25T19:02:58.677Z,6.02
2022-12-25T19:05:25.481Z,5.86
2022-12-25T19:07:51.979Z,5.71
2022-12-25T19:10:18.634Z,5.61
2022-12-25T19:12:48.171Z,5.63
2022-12-25T19:15:14.762Z,5.76
2022-12-25T19:17:41.476Z,5.82
2022-12-25T19:20:08.644Z,5.88
2022-12-25T19:22:35.114Z,5.90
2022-12-25T19:25:01.714Z,5.96
2022-12-25T19:27:28.222Z,5.98
2022-12-25T19:29:54.690Z,5.96
2022-12-25T19:32:21.240Z,6.00
2022-12-25T19:34:47.692Z,6.08
2022-12-25T19:37:15.150Z,6.15
2022-12-25T19:39:46.671Z,6.20
2022-12-25T19:42:14.976Z,6.21
2022-12-25T19:44:41.868Z,6.23
2022-12-25T19:47:09.759Z,6.39
2022-12-25T19:49:40.683Z,6.50
2022-12-25T19:52:07.451Z,6.52
2022-12-25T19:54:34.021Z,6.63
2022-12-25T19:57:00.516Z,6.64
2022-12-25T19:59:30.624Z,6.25
2022-12-25T20:01:57.179Z,5.97
2022-12-25T20:04:23.852Z,5.88
2022-12-25T20:06:50.362Z,5.84
2022-12-25T20:09:21.542Z,5.90
2022-12-25T20:11:48.820Z,6.07
2022-12-25T20:14:16.502Z,6.27
2022-12-25T20:16:44.043Z,6.39
2022-12-25T20:19:12.524Z,6.50
2022-12-25T20:21:39.047Z,6.68
2022-12-25T20:24:06.574Z,6.79
2022-12-25T20:26:33.110Z,6.80
2022-12-25T20:28:59.650Z,6.78
2022-12-25T20:31:29.795Z,6.63
2022-12-25T20:33:58.018Z,6.39
2022-12-25T20:36:24.678Z,6.34
2022-12-25T20:38:51.783Z,6.46
2022-12-25T20:41:28.055Z,6.50
2022-12-25T20:43:55.572Z,6.53
2022-12-25T20:46:22.494Z,6.51
2022-12-25T20:48:49.162Z,6.49
2022-12-25T20:51:19.793Z,6.51
2022-12-25T20:53:47.594Z,6.54
2022-12-25T20:56:16.495Z,6.50
2022-12-25T20:58:43.676Z,6.47
2022-12-25T21:01:13.509Z,6.47
2022-12-25T21:03:40.769Z,6.48
2022-12-25T21:06:08.680Z,6.51
2022-12-25T21:08:36.498Z,6.47
2022-12-25T21:11:04.524Z,6.40
2022-12-25T21:13:42.553Z,6.34
2022-12-25T21:16:16.681Z,6.32
2022-12-25T21:18:43.303Z,6.32
2022-12-25T21:21:10.287Z,6.27
2022-12-25T21:23:38.511Z,6.24
2022-12-25T21:26:19.283Z,6.23
2022-12-25T21:28:48.019Z,6.21
2022-12-25T21:31:14.778Z,6.18
2022-12-25T21:33:53.698Z,6.20
2022-12-25T21:36:32.302Z,6.19
2022-12-25T21:39:01.233Z,6.16
2022-12-25T21:41:29.442Z,6.17
2022-12-25T21:43:56.406Z,6.13
2022-12-25T21:46:23.271Z,6.13
2022-12-25T21:48:50.049Z,6.12
2022-12-25T21:51:38.550Z,6.12
2022-12-25T21:54:06.297Z,6.11
2022-12-25T21:56:41.320Z,6.10
2022-12-25T21:59:12.114Z,6.07
2022-12-25T22:01:38.779Z,6.04
2022-12-25T22:04:07.324Z,6.05
2022-12-25T22:06:52.962Z,6.02
2022-12-25T22:09:20.187Z,6.03
2022-12-25T22:12:05.705Z,6.00
2022-12-25T22:14:54.249Z,5.97
2022-12-25T22:17:44.201Z,6.00
2022-12-25T22:20:14.034Z,5.97
2022-12-25T22:22:40.546Z,5.94
2022-12-25T22:25:09.030Z,5.93
2022-12-25T22:27:38.060Z,5.90
2022-12-25T22:30:17.304Z,5.88
2022-12-25T22:32:44.476Z,5.84
2022-12-25T22:35:12.429Z,5.83
2022-12-25T22:37:40.182Z,5.81
2022-12-25T22:40:07.796Z,5.76
2022-12-25T22:42:34.363Z,5.78
2022-12-25T22:45:00.962Z,5.77
2022-12-25T22:47:27.808Z,5.81
2022-12-25T22:49:54.361Z,5.79
2022-12-25T22:52:20.919Z,5.78
2022-12-25T22:54:47.408Z,5.80
2022-12-25T22:57:13.894Z,5.77
2022-12-25T22:59:40.376Z,5.79
2022-12-25T23:02:06.986Z,5.78
2022-12-25T23:04:33.806Z,5.77
2022-12-25T23:07:00.304Z,5.77
2022-12-25T23:09:29.924Z,5.78
2022-12-25T23:11:57.945Z,5.76
2022-12-25T23:14:40.292Z,5.75
2022-12-25T23:17:30.775Z,5.73
2022-12-25T23:20:17.425Z,5.74
2022-12-25T23:23:02.555Z,5.75
2022-12-25T23:25:48.640Z,5.76
2022-12-25T23:28:35.156Z,5.74
2022-12-25T23:31:01.831Z,5.71
2022-12-25T23:33:28.374Z,5.69
2022-12-25T23:35:54.900Z,5.68
2022-12-25T23:38:21.371Z,5.67
2022-12-25T23:40:47.972Z,5.69
2022-12-25T23:43:14.566Z,5.68
2022-12-25T23:45:41.072Z,5.66
2022-12-25T23:48:07.539Z,5.65
2022-12-25T23:50:34.081Z,5.68
2022-12-25T23:53:00.570Z,5.65
2022-12-25T23:55:27.114Z,5.65
2022-12-25T23:57:53.611Z,5.60
